createdAt,value
2022-08-23T00:05:03.773Z,-72.00
2022-08-23T00:10:00.230Z,-72.00
2022-08-23T00:15:07.385Z,-72.00
2022-08-23T00:20:14.582Z,-36.00
2022-08-23T00:25:21.855Z,-72.00
2022-08-23T00:30:29.037Z,-72.00
2022-08-23T00:35:36.255Z,-72.00
2022-08-23T00:40:43.453Z,-72.00
2022-08-23T00:45:50.635Z,-72.00
2022-08-23T00:50:57.897Z,-72.00
2022-08-23T00:56:05.117Z,-72.00
2022-08-23T01:01:12.403Z,-108.00
2022-08-23T01:06:19.657Z,-108.00
2022-08-23T01:11:26.910Z,-72.00
2022-08-23T01:16:34.104Z,-108.00
2022-08-23T01:21:41.547Z,-36.00
2022-08-23T01:26:48.511Z,-72.00
2022-08-23T01:31:55.823Z,-108.00
2022-08-23T01:37:03.053Z,-72.00
2022-08-23T01:42:10.320Z,-108.00
2022-08-23T01:47:17.564Z,-108.00
2022-08-23T01:52:24.747Z,-72.00
2022-08-23T01:57:31.963Z,-72.00
2022-08-23T02:02:39.194Z,-108.00
2022-08-23T02:07:46.470Z,-72.00
2022-08-23T02:12:53.726Z,-108.00
2022-08-23T02:18:01.202Z,-72.00
2022-08-23T02:23:08.201Z,-108.00
2022-08-23T02:28:15.783Z,-108.00
2022-08-23T02:33:23.026Z,-72.00
2022-08-23T02:38:30.246Z,-108.00
2022-08-23T02:43:40.961Z,-108.00
2022-08-23T02:48:44.868Z,-108.00
2022-08-23T02:53:52.096Z,-108.00
2022-08-23T02:58:59.277Z,-72.00
2022-08-23T03:04:06.436Z,-108.00
2022-08-23T03:09:13.708Z,-72.00
2022-08-23T03:14:20.896Z,-108.00
2022-08-23T03:19:28.099Z,-36.00
2022-08-23T03:24:35.280Z,-72.00
2022-08-23T03:29:42.561Z,-108.00
2022-08-23T03:34:49.774Z,-108.00
2022-08-23T03:39:57.038Z,-108.00
2022-08-23T03:45:04.232Z,-72.00
2022-08-23T03:50:11.400Z,-72.00
2022-08-23T03:55:18.567Z,-72.00
2022-08-23T04:00:25.744Z,-72.00
2022-08-23T04:05:32.961Z,-72.00
2022-08-23T04:10:40.146Z,0.00
2022-08-23T04:15:47.343Z,36.00
2022-08-23T04:20:54.525Z,144.00
2022-08-23T04:26:01.772Z,360.00
2022-08-23T04:31:09.008Z,684.00
2022-08-23T04:36:16.274Z,1152.00
2022-08-23T04:41:23.565Z,1476.00
2022-08-23T04:46:30.734Z,2088.00
2022-08-23T04:51:37.935Z,2520.00
2022-08-23T04:56:45.192Z,2916.00
2022-08-23T05:01:52.543Z,3276.00
2022-08-23T05:06:59.830Z,3672.00
2022-08-23T05:12:07.116Z,3996.00
2022-08-23T05:17:14.365Z,4860.00
2022-08-23T05:22:21.681Z,5796.00
2022-08-23T05:27:28.869Z,6228.00
2022-08-23T05:32:36.111Z,6588.00
2022-08-23T05:37:43.369Z,6984.00
2022-08-23T05:42:50.571Z,7308.00
2022-08-23T05:47:57.908Z,7704.00
2022-08-23T05:53:05.099Z,7992.00
2022-08-23T05:58:12.334Z,8280.00
2022-08-23T06:03:19.556Z,8532.00
2022-08-23T06:08:26.723Z,8784.00
2022-08-23T06:13:34.040Z,9000.00
2022-08-23T06:18:41.277Z,9180.00
2022-08-23T06:23:48.461Z,9324.00
2022-08-23T06:28:55.765Z,9540.00
2022-08-23T06:34:03.254Z,9684.00
2022-08-23T06:39:10.324Z,9864.00
2022-08-23T06:44:17.604Z,10008.00
2022-08-23T06:49:24.778Z,10692.00
2022-08-23T06:54:31.979Z,10800.00
2022-08-23T06:59:39.148Z,10944.00
2022-08-23T07:04:46.347Z,11052.00
2022-08-23T07:09:53.634Z,11196.00
2022-08-23T07:15:00.814Z,11304.00
2022-08-23T07:20:08.022Z,11412.00
2022-08-23T07:25:15.594Z,11484.00
2022-08-23T07:30:22.365Z,11520.00
2022-08-23T07:35:29.530Z,11700.00
2022-08-23T07:40:39.154Z,12168.00
2022-08-23T07:45:43.897Z,11988.00
2022-08-23T07:50:54.694Z,12132.00
2022-08-23T07:55:58.309Z,12312.00
2022-08-23T08:01:05.474Z,12384.00
2022-08-23T08:06:12.703Z,12348.00
2022-08-23T08:11:20.111Z,12456.00
2022-08-23T08:16:27.164Z,12420.00
2022-08-23T08:21:34.416Z,12456.00
2022-08-23T08:26:41.700Z,12492.00
2022-08-23T08:31:53.632Z,12564.00
2022-08-23T08:36:58.232Z,12420.00
2022-08-23T08:42:04.938Z,12456.00
2022-08-23T08:47:10.642Z,12888.00
2022-08-23T08:52:17.831Z,12960.00
2022-08-23T08:57:27.316Z,12924.00
2022-08-23T09:02:33.501Z,12888.00
2022-08-23T09:07:39.491Z,13032.00
2022-08-23T09:12:46.681Z,12888.00
2022-08-23T09:17:53.970Z,12636.00
2022-08-23T09:23:01.154Z,12852.00
2022-08-23T09:28:08.301Z,12852.00
2022-08-23T09:33:15.604Z,12888.00
2022-08-23T09:38:22.749Z,13104.00
2022-08-23T09:43:29.933Z,13068.00
2022-08-23T09:48:37.148Z,12960.00
2022-08-23T09:53:44.339Z,13248.00
2022-08-23T09:58:53.235Z,13104.00
2022-08-23T10:04:01.571Z,13140.00
2022-08-23T10:09:08.703Z,12924.00
2022-08-23T10:14:15.986Z,12960.00
2022-08-23T10:19:23.493Z,12852.00
2022-08-23T10:24:30.652Z,12816.00
2022-08-23T10:29:37.820Z,12888.00
2022-08-23T10:34:49.823Z,12852.00
2022-08-23T10:39:52.285Z,12852.00
2022-08-23T10:44:59.562Z,12816.00
2022-08-23T10:50:06.786Z,12744.00
2022-08-23T10:55:15.168Z,12780.00
2022-08-23T11:00:27.269Z,12672.00
2022-08-23T11:05:34.522Z,12816.00
2022-08-23T11:10:41.743Z,12852.00
2022-08-23T11:15:49.591Z,12888.00
2022-08-23T11:20:56.691Z,12960.00
2022-08-23T11:26:03.921Z,13068.00
2022-08-23T11:31:11.831Z,13104.00
2022-08-23T11:36:18.501Z,12960.00
2022-08-23T11:41:25.666Z,12960.00
2022-08-23T11:46:32.930Z,13212.00
2022-08-23T11:51:40.062Z,13140.00
2022-08-23T11:56:47.264Z,13176.00
2022-08-23T12:01:54.504Z,13392.00
2022-08-23T12:07:01.799Z,13428.00
2022-08-23T12:12:08.995Z,14184.00
2022-08-23T12:17:16.894Z,14868.00
2022-08-23T12:22:23.511Z,13392.00
2022-08-23T12:27:30.717Z,14832.00
2022-08-23T12:32:37.920Z,14328.00
2022-08-23T12:37:45.156Z,13932.00
2022-08-23T12:42:52.376Z,13356.00
2022-08-23T12:47:59.616Z,13068.00
2022-08-23T12:53:06.842Z,12312.00
2022-08-23T12:58:14.048Z,11880.00
2022-08-23T13:03:21.273Z,11484.00
2022-08-23T13:08:34.759Z,11088.00
2022-08-23T13:13:35.727Z,10800.00
2022-08-23T13:18:42.878Z,10764.00
2022-08-23T13:23:50.086Z,10872.00
2022-08-23T13:28:57.255Z,11124.00
2022-08-23T13:34:06.096Z,10656.00
2022-08-23T13:39:11.641Z,10656.00
2022-08-23T13:44:19.302Z,10476.00
2022-08-23T13:49:26.284Z,10548.00
2022-08-23T13:54:33.494Z,10368.00
2022-08-23T13:59:40.745Z,10224.00
2022-08-23T14:04:48.014Z,10116.00
2022-08-23T14:09:55.363Z,9936.00
2022-08-23T14:15:02.323Z,9792.00
2022-08-23T14:25:16.671Z,9648.00
2022-08-23T14:30:23.887Z,9504.00
2022-08-23T14:35:31.058Z,9648.00
2022-08-23T14:40:38.250Z,10116.00
2022-08-23T14:45:45.602Z,10008.00
2022-08-23T14:50:52.721Z,10368.00
2022-08-23T14:56:20.636Z,10692.00
2022-08-23T15:01:07.182Z,10872.00
2022-08-23T15:06:14.368Z,11340.00
2022-08-23T15:16:28.824Z,12276.00
2022-08-23T15:21:35.939Z,12636.00
2022-08-23T15:26:43.188Z,12996.00
2022-08-23T15:31:50.425Z,13320.00
2022-08-23T15:36:57.715Z,13536.00
2022-08-23T15:42:04.979Z,13536.00
2022-08-23T15:47:12.128Z,13176.00
2022-08-23T15:52:19.355Z,13068.00
2022-08-23T15:57:27.884Z,13140.00
2022-08-23T16:02:51.054Z,13212.00
2022-08-23T16:07:40.951Z,13428.00
2022-08-23T16:12:48.187Z,13572.00
2022-08-23T16:17:55.383Z,13644.00
2022-08-23T16:23:02.841Z,13572.00
2022-08-23T16:28:09.693Z,13464.00
2022-08-23T16:33:16.949Z,13248.00
2022-08-23T16:38:24.144Z,13032.00
2022-08-23T16:43:32.998Z,12816.00
2022-08-23T16:48:40.188Z,12564.00
2022-08-23T16:53:57.059Z,12348.00
2022-08-23T16:58:54.668Z,12168.00
2022-08-23T17:04:01.821Z,11880.00
2022-08-23T17:09:09.014Z,11592.00
2022-08-23T17:14:16.208Z,11160.00
2022-08-23T17:19:23.434Z,10800.00
2022-08-23T17:24:30.597Z,10476.00
2022-08-23T17:29:37.789Z,9756.00
2022-08-23T17:34:44.952Z,5832.00
2022-08-23T17:39:53.299Z,4068.00
2022-08-23T17:44:59.329Z,3708.00
2022-08-23T17:50:06.563Z,3672.00
2022-08-23T17:55:13.750Z,3132.00
2022-08-23T18:00:20.929Z,2700.00
2022-08-23T18:05:28.090Z,2304.00
2022-08-23T18:10:35.346Z,2448.00
2022-08-23T18:15:42.561Z,1404.00
2022-08-23T18:20:49.994Z,1116.00
2022-08-23T18:25:57.598Z,7740.00
2022-08-23T18:31:05.132Z,7596.00
2022-08-23T18:36:12.515Z,7596.00
2022-08-23T18:41:19.824Z,7632.00
2022-08-23T18:46:31.707Z,7020.00
2022-08-23T18:51:35.060Z,7092.00
2022-08-23T18:56:42.413Z,7164.00
2022-08-23T19:01:50.071Z,7200.00
2022-08-23T19:06:57.489Z,7164.00
2022-08-23T19:12:05.100Z,7200.00
2022-08-23T19:17:12.477Z,7704.00
2022-08-23T19:22:20.023Z,7344.00
2022-08-23T19:27:27.659Z,7272.00
2022-08-23T19:32:35.211Z,7632.00
2022-08-23T19:37:42.766Z,7596.00
2022-08-23T19:42:50.814Z,7524.00
2022-08-23T19:47:58.301Z,7668.00
2022-08-23T19:53:05.689Z,7668.00
2022-08-23T19:58:13.233Z,12204.00
2022-08-23T20:03:20.844Z,12024.00
2022-08-23T20:08:35.630Z,11880.00
2022-08-23T20:13:43.234Z,7740.00
2022-08-23T20:18:50.640Z,7524.00
2022-08-23T20:23:57.922Z,7308.00
2022-08-23T20:29:05.211Z,7776.00
2022-08-23T20:34:12.613Z,7488.00
2022-08-23T20:39:23.751Z,7668.00
2022-08-23T20:44:27.174Z,7596.00
2022-08-23T20:49:34.711Z,7164.00
2022-08-23T20:54:41.972Z,7380.00
2022-08-23T20:59:49.276Z,7308.00
2022-08-23T21:04:56.458Z,7272.00
2022-08-23T21:10:03.718Z,7200.00
2022-08-23T21:15:11.315Z,7308.00
2022-08-23T21:20:18.267Z,7308.00
2022-08-23T21:25:25.509Z,7272.00
2022-08-23T21:30:32.784Z,7200.00
2022-08-23T21:35:39.986Z,7452.00
2022-08-23T21:40:47.167Z,7704.00
2022-08-23T21:45:54.462Z,7848.00
2022-08-23T21:51:01.643Z,7416.00
2022-08-23T21:56:08.800Z,7488.00
2022-08-23T22:01:16.075Z,7380.00
2022-08-23T22:06:23.183Z,7884.00
2022-08-23T22:11:30.393Z,7380.00
2022-08-23T22:16:37.583Z,-72.00
2022-08-23T22:21:44.775Z,-72.00
2022-08-23T22:26:52.015Z,-36.00
2022-08-23T22:31:59.198Z,-72.00
2022-08-23T22:37:06.366Z,-72.00
2022-08-23T22:42:13.620Z,-36.00
2022-08-23T22:47:20.819Z,-36.00
2022-08-23T22:52:27.991Z,-72.00
2022-08-23T22:57:35.223Z,-36.00
2022-08-23T23:02:42.460Z,-72.00
2022-08-23T23:07:49.660Z,-36.00
2022-08-23T23:12:56.861Z,-36.00
2022-08-23T23:18:04.346Z,-36.00
2022-08-23T23:23:11.293Z,-108.00
2022-08-23T23:28:18.504Z,-108.00
2022-08-23T23:33:25.767Z,-72.00
2022-08-23T23:38:32.987Z,-108.00
2022-08-23T23:43:40.169Z,-72.00
2022-08-23T23:48:47.428Z,-108.00
2022-08-23T23:53:54.650Z,-108.00
2022-08-23T23:59:01.898Z,-72.00
